sensor_id;sensor_type;location;lat;lon;timestamp;temperature;humidity
18880;DHT22;9572;52.378;13.404;2024-02-23T00:01:51;10.80;99.90
18880;DHT22;9572;52.378;13.404;2024-02-23T00:04:18;10.80;99.90
18880;DHT22;9572;52.378;13.404;2024-02-23T00:06:45;10.70;99.90
18880;DHT22;9572;52.378;13.404;2024-02-23T00:09:12;10.60;99.90
18880;DHT22;9572;52.378;13.404;2024-02-23T00:11:41;10.70;99.90
18880;DHT22;9572;52.378;13.404;2024-02-23T00:14:10;10.70;99.90
18880;DHT22;9572;52.378;13.404;2024-02-23T00:16:40;10.70;99.90
18880;DHT22;9572;52.378;13.404;2024-02-23T00:19:08;10.70;99.90
18880;DHT22;9572;52.378;13.404;2024-02-23T00:21:36;10.70;99.90
18880;DHT22;9572;52.378;13.404;2024-02-23T00:24:03;10.70;99.90
18880;DHT22;9572;52.378;13.404;2024-02-23T00:26:30;10.70;99.90
18880;DHT22;9572;52.378;13.404;2024-02-23T00:28:59;10.80;99.90
18880;DHT22;9572;52.378;13.404;2024-02-23T00:31:25;10.80;99.90
18880;DHT22;9572;52.378;13.404;2024-02-23T00:33:52;10.70;99.90
18880;DHT22;9572;52.378;13.404;2024-02-23T00:36:19;10.80;99.90
18880;DHT22;9572;52.378;13.404;2024-02-23T00:38:46;10.70;99.90
18880;DHT22;9572;52.378;13.404;2024-02-23T00:41:13;10.70;99.90
18880;DHT22;9572;52.378;13.404;2024-02-23T00:43:40;10.70;99.90
18880;DHT22;9572;52.378;13.404;2024-02-23T00:46:09;10.80;99.90
18880;DHT22;9572;52.378;13.404;2024-02-23T00:48:35;10.90;99.90
18880;DHT22;9572;52.378;13.404;2024-02-23T00:51:03;10.90;99.90
18880;DHT22;9572;52.378;13.404;2024-02-23T00:53:30;10.90;99.90
18880;DHT22;9572;52.378;13.404;2024-02-23T00:55:57;10.90;99.90
18880;DHT22;9572;52.378;13.404;2024-02-23T00:58:24;10.90;99.90
18880;DHT22;9572;52.378;13.404;2024-02-23T01:00:51;10.90;99.90
18880;DHT22;9572;52.378;13.404;2024-02-23T01:03:19;10.90;99.90
18880;DHT22;9572;52.378;13.404;2024-02-23T01:05:46;10.90;99.90
18880;DHT22;9572;52.378;13.404;2024-02-23T01:08:13;11.00;99.90
18880;DHT22;9572;52.378;13.404;2024-02-23T01:10:40;11.00;99.90
18880;DHT22;9572;52.378;13.404;2024-02-23T01:13:07;11.00;99.90
18880;DHT22;9572;52.378;13.404;2024-02-23T01:15:34;11.00;99.90
18880;DHT22;9572;52.378;13.404;2024-02-23T01:18:00;11.00;99.90
18880;DHT22;9572;52.378;13.404;2024-02-23T01:20:29;11.00;99.90
18880;DHT22;9572;52.378;13.404;2024-02-23T01:22:55;11.10;99.90
18880;DHT22;9572;52.378;13.404;2024-02-23T01:25:22;11.10;99.90
18880;DHT22;9572;52.378;13.404;2024-02-23T01:27:49;11.10;99.90
18880;DHT22;9572;52.378;13.404;2024-02-23T01:30:16;11.10;99.90
18880;DHT22;9572;52.378;13.404;2024-02-23T01:32:44;11.10;99.90
18880;DHT22;9572;52.378;13.404;2024-02-23T01:35:11;11.20;99.90
18880;DHT22;9572;52.378;13.404;2024-02-23T01:37:39;11.20;99.90
18880;DHT22;9572;52.378;13.404;2024-02-23T01:40:07;11.20;99.90
18880;DHT22;9572;52.378;13.404;2024-02-23T01:42:34;11.30;99.90
18880;DHT22;9572;52.378;13.404;2024-02-23T01:45:00;11.30;99.90
18880;DHT22;9572;52.378;13.404;2024-02-23T01:47:29;11.40;99.90
18880;DHT22;9572;52.378;13.404;2024-02-23T01:49:57;11.40;99.90
18880;DHT22;9572;52.378;13.404;2024-02-23T01:52:26;11.40;99.90
18880;DHT22;9572;52.378;13.404;2024-02-23T01:54:54;11.40;99.90
18880;DHT22;9572;52.378;13.404;2024-02-23T01:57:22;11.40;99.90
18880;DHT22;9572;52.378;13.404;2024-02-23T01:59:50;11.50;99.90
18880;DHT22;9572;52.378;13.404;2024-02-23T02:02:16;11.60;99.90
18880;DHT22;9572;52.378;13.404;2024-02-23T02:04:43;11.70;99.90
18880;DHT22;9572;52.378;13.404;2024-02-23T02:07:10;11.70;99.90
18880;DHT22;9572;52.378;13.404;2024-02-23T02:09:37;11.70;99.90
18880;DHT22;9572;52.378;13.404;2024-02-23T02:12:06;11.70;99.90
18880;DHT22;9572;52.378;13.404;2024-02-23T02:14:32;11.60;99.90
18880;DHT22;9572;52.378;13.404;2024-02-23T02:17:00;11.50;99.90
18880;DHT22;9572;52.378;13.404;2024-02-23T02:19:27;11.40;99.90
18880;DHT22;9572;52.378;13.404;2024-02-23T02:21:53;11.20;99.90
18880;DHT22;9572;52.378;13.404;2024-02-23T02:24:20;11.10;99.90
18880;DHT22;9572;52.378;13.404;2024-02-23T02:26:47;11.00;99.90
18880;DHT22;9572;52.378;13.404;2024-02-23T02:29:17;10.90;99.90
18880;DHT22;9572;52.378;13.404;2024-02-23T02:31:44;10.80;99.90
18880;DHT22;9572;52.378;13.404;2024-02-23T02:34:11;10.80;99.90
18880;DHT22;9572;52.378;13.404;2024-02-23T02:40:02;10.70;99.90
18880;DHT22;9572;52.378;13.404;2024-02-23T02:42:29;10.60;99.90
18880;DHT22;9572;52.378;13.404;2024-02-23T02:44:58;10.60;99.90
18880;DHT22;9572;52.378;13.404;2024-02-23T02:47:24;10.60;99.90
18880;DHT22;9572;52.378;13.404;2024-02-23T02:49:51;10.50;99.90
18880;DHT22;9572;52.378;13.404;2024-02-23T02:52:18;10.40;99.90
18880;DHT22;9572;52.378;13.404;2024-02-23T02:54:46;10.50;99.90
18880;DHT22;9572;52.378;13.404;2024-02-23T02:57:14;10.50;99.90
18880;DHT22;9572;52.378;13.404;2024-02-23T02:59:41;10.50;99.90
18880;DHT22;9572;52.378;13.404;2024-02-23T03:02:11;10.50;99.90
18880;DHT22;9572;52.378;13.404;2024-02-23T03:04:38;10.40;99.90
18880;DHT22;9572;52.378;13.404;2024-02-23T03:07:05;10.40;99.90
18880;DHT22;9572;52.378;13.404;2024-02-23T03:09:32;10.40;99.90
18880;DHT22;9572;52.378;13.404;2024-02-23T03:11:58;10.40;99.90
18880;DHT22;9572;52.378;13.404;2024-02-23T03:14:25;10.40;99.90
18880;DHT22;9572;52.378;13.404;2024-02-23T03:16:52;10.40;99.90
18880;DHT22;9572;52.378;13.404;2024-02-23T03:19:21;10.30;99.90
18880;DHT22;9572;52.378;13.404;2024-02-23T03:21:49;10.30;99.90
18880;DHT22;9572;52.378;13.404;2024-02-23T03:24:16;10.20;99.90
18880;DHT22;9572;52.378;13.404;2024-02-23T03:26:43;10.20;99.90
18880;DHT22;9572;52.378;13.404;2024-02-23T03:29:10;10.20;99.90
18880;DHT22;9572;52.378;13.404;2024-02-23T03:31:37;10.20;99.90
18880;DHT22;9572;52.378;13.404;2024-02-23T03:34:04;10.20;99.90
18880;DHT22;9572;52.378;13.404;2024-02-23T03:36:32;10.20;99.90
18880;DHT22;9572;52.378;13.404;2024-02-23T03:38:59;10.20;99.90
18880;DHT22;9572;52.378;13.404;2024-02-23T03:41:26;10.20;99.90
18880;DHT22;9572;52.378;13.404;2024-02-23T03:43:53;10.10;99.90
18880;DHT22;9572;52.378;13.404;2024-02-23T03:46:20;10.10;99.90
18880;DHT22;9572;52.378;13.404;2024-02-23T03:48:47;10.00;99.90
18880;DHT22;9572;52.378;13.404;2024-02-23T03:51:14;10.00;99.90
18880;DHT22;9572;52.378;13.404;2024-02-23T03:53:43;10.00;99.90
18880;DHT22;9572;52.378;13.404;2024-02-23T03:56:10;9.90;99.90
18880;DHT22;9572;52.378;13.404;2024-02-23T04:01:44;9.90;99.90
18880;DHT22;9572;52.378;13.404;2024-02-23T04:04:10;9.80;99.90
18880;DHT22;9572;52.378;13.404;2024-02-23T04:06:37;9.70;99.90
18880;DHT22;9572;52.378;13.404;2024-02-23T04:09:06;9.80;99.90
18880;DHT22;9572;52.378;13.404;2024-02-23T04:11:34;9.90;99.90
18880;DHT22;9572;52.378;13.404;2024-02-23T04:14:01;9.80;99.90
18880;DHT22;9572;52.378;13.404;2024-02-23T04:16:31;9.80;99.90
18880;DHT22;9572;52.378;13.404;2024-02-23T04:18:58;9.70;99.90
18880;DHT22;9572;52.378;13.404;2024-02-23T04:21:25;9.70;99.90
18880;DHT22;9572;52.378;13.404;2024-02-23T04:23:52;9.70;99.90
18880;DHT22;9572;52.378;13.404;2024-02-23T04:26:20;9.70;99.90
18880;DHT22;9572;52.378;13.404;2024-02-23T04:28:48;9.70;99.90
18880;DHT22;9572;52.378;13.404;2024-02-23T04:31:14;9.60;99.90
18880;DHT22;9572;52.378;13.404;2024-02-23T04:33:41;9.60;99.90
18880;DHT22;9572;52.378;13.404;2024-02-23T04:36:08;9.60;99.90
18880;DHT22;9572;52.378;13.404;2024-02-23T04:38:35;9.50;99.90
18880;DHT22;9572;52.378;13.404;2024-02-23T04:41:03;9.40;99.90
18880;DHT22;9572;52.378;13.404;2024-02-23T04:43:32;9.30;99.90
18880;DHT22;9572;52.378;13.404;2024-02-23T04:45:59;9.30;99.90
18880;DHT22;9572;52.378;13.404;2024-02-23T04:48:26;9.30;99.90
18880;DHT22;9572;52.378;13.404;2024-02-23T04:50:52;9.20;99.90
18880;DHT22;9572;52.378;13.404;2024-02-23T04:53:19;9.20;99.90
18880;DHT22;9572;52.378;13.404;2024-02-23T04:55:46;9.20;99.90
18880;DHT22;9572;52.378;13.404;2024-02-23T04:58:13;9.10;99.90
18880;DHT22;9572;52.378;13.404;2024-02-23T05:04:03;9.00;99.90
18880;DHT22;9572;52.378;13.404;2024-02-23T05:06:30;9.00;99.90
18880;DHT22;9572;52.378;13.404;2024-02-23T05:08:57;9.00;99.90
18880;DHT22;9572;52.378;13.404;2024-02-23T05:11:24;8.90;99.90
18880;DHT22;9572;52.378;13.404;2024-02-23T05:13:51;8.90;99.90
18880;DHT22;9572;52.378;13.404;2024-02-23T05:16:18;8.90;99.90
18880;DHT22;9572;52.378;13.404;2024-02-23T05:18:45;8.80;99.90
18880;DHT22;9572;52.378;13.404;2024-02-23T05:21:14;8.80;99.90
18880;DHT22;9572;52.378;13.404;2024-02-23T05:23:41;8.70;99.90
18880;DHT22;9572;52.378;13.404;2024-02-23T05:26:08;8.70;99.90
18880;DHT22;9572;52.378;13.404;2024-02-23T05:28:36;8.70;99.90
18880;DHT22;9572;52.378;13.404;2024-02-23T05:31:03;8.60;99.90
18880;DHT22;9572;52.378;13.404;2024-02-23T05:33:30;8.50;99.90
18880;DHT22;9572;52.378;13.404;2024-02-23T05:35:57;8.50;99.90
18880;DHT22;9572;52.378;13.404;2024-02-23T05:41:55;8.40;99.90
18880;DHT22;9572;52.378;13.404;2024-02-23T05:44:22;8.40;99.90
18880;DHT22;9572;52.378;13.404;2024-02-23T05:50:14;8.40;99.90
18880;DHT22;9572;52.378;13.404;2024-02-23T05:52:40;8.30;99.90
18880;DHT22;9572;52.378;13.404;2024-02-23T05:55:08;8.20;99.90
18880;DHT22;9572;52.378;13.404;2024-02-23T05:57:36;8.20;99.90
18880;DHT22;9572;52.378;13.404;2024-02-23T06:00:04;8.10;99.90
18880;DHT22;9572;52.378;13.404;2024-02-23T06:02:33;8.10;99.90
18880;DHT22;9572;52.378;13.404;2024-02-23T06:08:29;8.10;99.90
18880;DHT22;9572;52.378;13.404;2024-02-23T06:10:56;8.10;99.90
18880;DHT22;9572;52.378;13.404;2024-02-23T06:13:26;8.10;99.90
18880;DHT22;9572;52.378;13.404;2024-02-23T06:15:54;8.00;99.90
18880;DHT22;9572;52.378;13.404;2024-02-23T06:18:21;8.00;99.90
18880;DHT22;9572;52.378;13.404;2024-02-23T06:20:48;8.00;99.90
18880;DHT22;9572;52.378;13.404;2024-02-23T06:23:15;8.00;99.90
18880;DHT22;9572;52.378;13.404;2024-02-23T06:25:42;7.90;99.90
18880;DHT22;9572;52.378;13.404;2024-02-23T06:28:09;7.90;99.90
18880;DHT22;9572;52.378;13.404;2024-02-23T06:30:38;7.90;99.90
18880;DHT22;9572;52.378;13.404;2024-02-23T06:33:05;7.90;99.90
18880;DHT22;9572;52.378;13.404;2024-02-23T06:35:32;7.90;99.90
18880;DHT22;9572;52.378;13.404;2024-02-23T06:37:59;7.90;99.90
18880;DHT22;9572;52.378;13.404;2024-02-23T06:40:26;7.80;99.90
18880;DHT22;9572;52.378;13.404;2024-02-23T06:42:53;7.80;99.90
18880;DHT22;9572;52.378;13.404;2024-02-23T06:45:20;7.80;99.90
18880;DHT22;9572;52.378;13.404;2024-02-23T06:47:52;7.90;99.90
18880;DHT22;9572;52.378;13.404;2024-02-23T06:50:19;7.90;99.90
18880;DHT22;9572;52.378;13.404;2024-02-23T06:52:47;7.90;99.90
18880;DHT22;9572;52.378;13.404;2024-02-23T06:55:15;7.90;99.90
18880;DHT22;9572;52.378;13.404;2024-02-23T06:57:43;7.90;99.90
18880;DHT22;9572;52.378;13.404;2024-02-23T07:00:11;7.90;99.90
18880;DHT22;9572;52.378;13.404;2024-02-23T07:02:38;7.80;99.90
18880;DHT22;9572;52.378;13.404;2024-02-23T07:05:07;7.90;99.90
18880;DHT22;9572;52.378;13.404;2024-02-23T07:07:34;7.80;99.90
18880;DHT22;9572;52.378;13.404;2024-02-23T07:10:01;7.90;99.90
18880;DHT22;9572;52.378;13.404;2024-02-23T07:12:28;8.00;99.90
18880;DHT22;9572;52.378;13.404;2024-02-23T07:14:55;8.00;99.90
18880;DHT22;9572;52.378;13.404;2024-02-23T07:17:22;8.00;99.90
18880;DHT22;9572;52.378;13.404;2024-02-23T07:19:49;7.90;99.90
18880;DHT22;9572;52.378;13.404;2024-02-23T07:22:17;7.90;99.90
18880;DHT22;9572;52.378;13.404;2024-02-23T07:24:45;7.90;99.90
18880;DHT22;9572;52.378;13.404;2024-02-23T07:27:12;7.90;99.90
18880;DHT22;9572;52.378;13.404;2024-02-23T07:29:39;7.90;99.90
18880;DHT22;9572;52.378;13.404;2024-02-23T07:32:06;7.80;99.90
18880;DHT22;9572;52.378;13.404;2024-02-23T07:34:33;7.90;99.90
18880;DHT22;9572;52.378;13.404;2024-02-23T07:37:00;7.90;99.90
18880;DHT22;9572;52.378;13.404;2024-02-23T07:39:29;8.00;99.90
18880;DHT22;9572;52.378;13.404;2024-02-23T07:41:56;8.00;99.90
18880;DHT22;9572;52.378;13.404;2024-02-23T07:44:23;7.90;99.90
18880;DHT22;9572;52.378;13.404;2024-02-23T07:46:51;7.90;99.90
18880;DHT22;9572;52.378;13.404;2024-02-23T07:49:20;8.00;99.90
18880;DHT22;9572;52.378;13.404;2024-02-23T07:51:47;8.00;99.90
18880;DHT22;9572;52.378;13.404;2024-02-23T07:54:14;8.20;99.90
18880;DHT22;9572;52.378;13.404;2024-02-23T07:56:43;8.20;99.90
18880;DHT22;9572;52.378;13.404;2024-02-23T07:59:10;8.10;99.90
18880;DHT22;9572;52.378;13.404;2024-02-23T08:01:37;8.20;99.90
18880;DHT22;9572;52.378;13.404;2024-02-23T08:04:05;8.20;99.90
18880;DHT22;9572;52.378;13.404;2024-02-23T08:06:32;8.20;99.90
18880;DHT22;9572;52.378;13.404;2024-02-23T08:08:59;8.30;99.90
18880;DHT22;9572;52.378;13.404;2024-02-23T08:11:26;8.30;99.90
18880;DHT22;9572;52.378;13.404;2024-02-23T08:13:54;8.30;99.90
18880;DHT22;9572;52.378;13.404;2024-02-23T08:16:21;8.40;99.90
18880;DHT22;9572;52.378;13.404;2024-02-23T08:18:48;8.50;99.90
18880;DHT22;9572;52.378;13.404;2024-02-23T08:21:15;8.50;99.90
18880;DHT22;9572;52.378;13.404;2024-02-23T08:23:43;8.60;99.90
18880;DHT22;9572;52.378;13.404;2024-02-23T08:26:10;8.60;99.90
18880;DHT22;9572;52.378;13.404;2024-02-23T08:28:37;8.70;99.90
18880;DHT22;9572;52.378;13.404;2024-02-23T08:31:06;8.60;99.90
18880;DHT22;9572;52.378;13.404;2024-02-23T08:33:33;8.70;99.90
18880;DHT22;9572;52.378;13.404;2024-02-23T08:36:00;8.70;99.90
18880;DHT22;9572;52.378;13.404;2024-02-23T08:38:26;8.70;99.90
18880;DHT22;9572;52.378;13.404;2024-02-23T08:40:53;8.70;99.90
18880;DHT22;9572;52.378;13.404;2024-02-23T08:43:28;8.80;99.90
18880;DHT22;9572;52.378;13.404;2024-02-23T08:45:55;8.80;99.90
18880;DHT22;9572;52.378;13.404;2024-02-23T08:48:23;8.80;99.90
18880;DHT22;9572;52.378;13.404;2024-02-23T08:50:50;8.90;99.90
18880;DHT22;9572;52.378;13.404;2024-02-23T08:53:17;8.90;99.90
18880;DHT22;9572;52.378;13.404;2024-02-23T08:55:44;8.90;99.90
18880;DHT22;9572;52.378;13.404;2024-02-23T08:58:11;8.90;99.90
18880;DHT22;9572;52.378;13.404;2024-02-23T09:00:37;8.90;99.90
18880;DHT22;9572;52.378;13.404;2024-02-23T09:03:05;9.00;99.90
18880;DHT22;9572;52.378;13.404;2024-02-23T09:05:33;9.10;99.90
18880;DHT22;9572;52.378;13.404;2024-02-23T09:08:00;9.20;99.90
18880;DHT22;9572;52.378;13.404;2024-02-23T09:10:26;9.30;99.90
18880;DHT22;9572;52.378;13.404;2024-02-23T09:12:53;9.30;99.90
18880;DHT22;9572;52.378;13.404;2024-02-23T09:15:20;9.30;99.90
18880;DHT22;9572;52.378;13.404;2024-02-23T09:17:47;9.20;99.90
18880;DHT22;9572;52.378;13.404;2024-02-23T09:20:14;9.20;99.90
18880;DHT22;9572;52.378;13.404;2024-02-23T09:22:43;9.10;99.90
18880;DHT22;9572;52.378;13.404;2024-02-23T09:25:10;9.10;99.90
18880;DHT22;9572;52.378;13.404;2024-02-23T09:27:37;9.20;99.90
18880;DHT22;9572;52.378;13.404;2024-02-23T09:30:10;9.20;99.90
18880;DHT22;9572;52.378;13.404;2024-02-23T09:32:37;9.20;99.90
18880;DHT22;9572;52.378;13.404;2024-02-23T09:35:04;9.20;99.90
18880;DHT22;9572;52.378;13.404;2024-02-23T09:37:32;9.20;99.90
18880;DHT22;9572;52.378;13.404;2024-02-23T09:40:00;9.30;99.90
18880;DHT22;9572;52.378;13.404;2024-02-23T09:42:28;9.40;99.90
18880;DHT22;9572;52.378;13.404;2024-02-23T09:44:58;9.40;99.90
18880;DHT22;9572;52.378;13.404;2024-02-23T09:47:27;9.50;99.90
18880;DHT22;9572;52.378;13.404;2024-02-23T09:49:54;9.60;99.90
18880;DHT22;9572;52.378;13.404;2024-02-23T09:52:22;9.60;99.90
18880;DHT22;9572;52.378;13.404;2024-02-23T09:54:49;9.70;99.90
18880;DHT22;9572;52.378;13.404;2024-02-23T09:57:17;9.70;99.90
18880;DHT22;9572;52.378;13.404;2024-02-23T09:59:44;9.70;99.90
18880;DHT22;9572;52.378;13.404;2024-02-23T10:02:15;9.60;99.90
18880;DHT22;9572;52.378;13.404;2024-02-23T10:04:43;9.50;99.90
18880;DHT22;9572;52.378;13.404;2024-02-23T10:07:10;9.50;99.90
18880;DHT22;9572;52.378;13.404;2024-02-23T10:09:37;9.50;99.90
18880;DHT22;9572;52.378;13.404;2024-02-23T10:12:04;9.60;99.90
18880;DHT22;9572;52.378;13.404;2024-02-23T10:14:33;9.60;99.90
18880;DHT22;9572;52.378;13.404;2024-02-23T10:16:59;9.60;99.90
18880;DHT22;9572;52.378;13.404;2024-02-23T10:19:27;9.70;99.90
18880;DHT22;9572;52.378;13.404;2024-02-23T10:21:55;9.70;99.90
18880;DHT22;9572;52.378;13.404;2024-02-23T10:24:22;9.70;99.90
18880;DHT22;9572;52.378;13.404;2024-02-23T10:26:49;9.80;99.90
18880;DHT22;9572;52.378;13.404;2024-02-23T10:29:16;9.80;99.90
18880;DHT22;9572;52.378;13.404;2024-02-23T10:31:46;10.00;99.90
18880;DHT22;9572;52.378;13.404;2024-02-23T10:34:18;9.90;99.90
18880;DHT22;9572;52.378;13.404;2024-02-23T10:36:46;9.70;99.90
18880;DHT22;9572;52.378;13.404;2024-02-23T10:39:16;9.80;99.90
18880;DHT22;9572;52.378;13.404;2024-02-23T10:41:51;9.80;99.90
18880;DHT22;9572;52.378;13.404;2024-02-23T10:44:21;9.90;99.90
18880;DHT22;9572;52.378;13.404;2024-02-23T10:46:50;10.00;99.90
18880;DHT22;9572;52.378;13.404;2024-02-23T10:49:17;9.90;99.90
18880;DHT22;9572;52.378;13.404;2024-02-23T10:51:47;9.90;99.90
18880;DHT22;9572;52.378;13.404;2024-02-23T10:54:16;9.90;99.90
18880;DHT22;9572;52.378;13.404;2024-02-23T10:56:46;9.90;99.90
18880;DHT22;9572;52.378;13.404;2024-02-23T10:59:14;9.90;99.90
18880;DHT22;9572;52.378;13.404;2024-02-23T11:01:44;9.90;99.90
18880;DHT22;9572;52.378;13.404;2024-02-23T11:04:13;9.90;99.90
18880;DHT22;9572;52.378;13.404;2024-02-23T11:06:40;10.00;99.90
18880;DHT22;9572;52.378;13.404;2024-02-23T11:09:12;10.10;99.90
18880;DHT22;9572;52.378;13.404;2024-02-23T11:11:39;10.10;99.90
18880;DHT22;9572;52.378;13.404;2024-02-23T11:14:08;10.00;99.90
18880;DHT22;9572;52.378;13.404;2024-02-23T11:16:38;10.10;99.90
18880;DHT22;9572;52.378;13.404;2024-02-23T11:19:08;10.10;99.90
18880;DHT22;9572;52.378;13.404;2024-02-23T11:21:37;10.20;99.90
18880;DHT22;9572;52.378;13.404;2024-02-23T11:24:05;10.20;99.90
18880;DHT22;9572;52.378;13.404;2024-02-23T11:26:32;10.30;99.90
18880;DHT22;9572;52.378;13.404;2024-02-23T11:29:10;10.30;99.90
18880;DHT22;9572;52.378;13.404;2024-02-23T11:31:44;10.30;99.90
18880;DHT22;9572;52.378;13.404;2024-02-23T11:34:11;10.30;99.90
18880;DHT22;9572;52.378;13.404;2024-02-23T11:36:39;10.30;99.90
18880;DHT22;9572;52.378;13.404;2024-02-23T11:39:06;10.20;99.90
18880;DHT22;9572;52.378;13.404;2024-02-23T11:41:37;10.30;99.90
18880;DHT22;9572;52.378;13.404;2024-02-23T11:44:04;10.30;99.90
18880;DHT22;9572;52.378;13.404;2024-02-23T11:46:32;10.40;99.90
18880;DHT22;9572;52.378;13.404;2024-02-23T11:48:59;10.40;99.90
18880;DHT22;9572;52.378;13.404;2024-02-23T11:51:26;10.40;99.90
18880;DHT22;9572;52.378;13.404;2024-02-23T11:53:57;10.40;99.90
18880;DHT22;9572;52.378;13.404;2024-02-23T11:56:26;10.40;99.90
18880;DHT22;9572;52.378;13.404;2024-02-23T11:58:53;10.40;99.90
18880;DHT22;9572;52.378;13.404;2024-02-23T12:01:20;10.40;99.90
18880;DHT22;9572;52.378;13.404;2024-02-23T12:03:47;10.50;99.90
18880;DHT22;9572;52.378;13.404;2024-02-23T12:06:15;10.40;99.90
18880;DHT22;9572;52.378;13.404;2024-02-23T12:08:42;10.50;99.90
18880;DHT22;9572;52.378;13.404;2024-02-23T12:11:12;10.50;99.90
18880;DHT22;9572;52.378;13.404;2024-02-23T12:13:39;10.50;99.90
18880;DHT22;9572;52.378;13.404;2024-02-23T12:16:07;10.40;99.90
18880;DHT22;9572;52.378;13.404;2024-02-23T12:18:35;10.50;99.90
18880;DHT22;9572;52.378;13.404;2024-02-23T12:21:03;10.50;99.90
18880;DHT22;9572;52.378;13.404;2024-02-23T12:23:41;10.50;99.90
18880;DHT22;9572;52.378;13.404;2024-02-23T12:26:08;10.50;99.90
18880;DHT22;9572;52.378;13.404;2024-02-23T12:28:37;10.40;99.90
18880;DHT22;9572;52.378;13.404;2024-02-23T12:31:04;10.40;99.90
18880;DHT22;9572;52.378;13.404;2024-02-23T12:33:33;10.30;99.90
18880;DHT22;9572;52.378;13.404;2024-02-23T12:36:01;10.40;99.90
18880;DHT22;9572;52.378;13.404;2024-02-23T12:38:28;10.40;99.90
18880;DHT22;9572;52.378;13.404;2024-02-23T12:40:56;10.40;99.90
18880;DHT22;9572;52.378;13.404;2024-02-23T12:43:23;10.30;99.90
18880;DHT22;9572;52.378;13.404;2024-02-23T12:45:52;10.30;99.90
18880;DHT22;9572;52.378;13.404;2024-02-23T12:48:19;10.40;99.90
18880;DHT22;9572;52.378;13.404;2024-02-23T12:50:47;10.40;99.90
18880;DHT22;9572;52.378;13.404;2024-02-23T12:53:31;10.40;99.90
18880;DHT22;9572;52.378;13.404;2024-02-23T12:55:59;10.30;99.90
18880;DHT22;9572;52.378;13.404;2024-02-23T12:58:26;10.30;99.90
18880;DHT22;9572;52.378;13.404;2024-02-23T13:00:55;10.30;99.90
18880;DHT22;9572;52.378;13.404;2024-02-23T13:03:22;10.40;99.90
18880;DHT22;9572;52.378;13.404;2024-02-23T13:05:49;10.30;99.90
18880;DHT22;9572;52.378;13.404;2024-02-23T13:08:17;10.40;99.90
18880;DHT22;9572;52.378;13.404;2024-02-23T13:10:44;10.40;99.90
18880;DHT22;9572;52.378;13.404;2024-02-23T13:13:11;10.50;99.90
18880;DHT22;9572;52.378;13.404;2024-02-23T13:15:39;10.50;99.90
18880;DHT22;9572;52.378;13.404;2024-02-23T13:18:07;10.50;99.90
18880;DHT22;9572;52.378;13.404;2024-02-23T13:20:34;10.50;99.90
18880;DHT22;9572;52.378;13.404;2024-02-23T13:23:01;10.40;99.90
18880;DHT22;9572;52.378;13.404;2024-02-23T13:25:28;10.40;99.90
18880;DHT22;9572;52.378;13.404;2024-02-23T13:27:55;10.40;99.90
18880;DHT22;9572;52.378;13.404;2024-02-23T13:30:23;10.40;99.90
18880;DHT22;9572;52.378;13.404;2024-02-23T13:32:50;10.40;99.90
18880;DHT22;9572;52.378;13.404;2024-02-23T13:35:18;10.40;99.90
18880;DHT22;9572;52.378;13.404;2024-02-23T13:37:45;10.40;99.90
18880;DHT22;9572;52.378;13.404;2024-02-23T13:40:12;10.40;99.90
18880;DHT22;9572;52.378;13.404;2024-02-23T13:42:39;10.30;99.90
18880;DHT22;9572;52.378;13.404;2024-02-23T13:45:07;10.30;99.90
18880;DHT22;9572;52.378;13.404;2024-02-23T13:47:34;10.30;99.90
18880;DHT22;9572;52.378;13.404;2024-02-23T13:50:01;10.30;99.90
18880;DHT22;9572;52.378;13.404;2024-02-23T13:52:30;10.30;99.90
18880;DHT22;9572;52.378;13.404;2024-02-23T13:54:57;10.30;99.90
18880;DHT22;9572;52.378;13.404;2024-02-23T13:57:24;10.20;99.90
18880;DHT22;9572;52.378;13.404;2024-02-23T13:59:50;10.20;99.90
18880;DHT22;9572;52.378;13.404;2024-02-23T14:02:25;10.10;99.90
18880;DHT22;9572;52.378;13.404;2024-02-23T14:04:52;10.10;99.90
18880;DHT22;9572;52.378;13.404;2024-02-23T14:07:20;10.20;99.90
18880;DHT22;9572;52.378;13.404;2024-02-23T14:09:48;10.10;99.90
18880;DHT22;9572;52.378;13.404;2024-02-23T14:12:15;10.00;99.90
18880;DHT22;9572;52.378;13.404;2024-02-23T14:14:43;10.00;99.90
18880;DHT22;9572;52.378;13.404;2024-02-23T14:17:10;10.00;99.90
18880;DHT22;9572;52.378;13.404;2024-02-23T14:19:36;10.00;99.90
18880;DHT22;9572;52.378;13.404;2024-02-23T14:22:04;9.90;99.90
18880;DHT22;9572;52.378;13.404;2024-02-23T14:24:32;9.80;99.90
18880;DHT22;9572;52.378;13.404;2024-02-23T14:27:00;9.80;99.90
18880;DHT22;9572;52.378;13.404;2024-02-23T14:29:27;9.80;99.90
18880;DHT22;9572;52.378;13.404;2024-02-23T14:31:54;9.80;99.90
18880;DHT22;9572;52.378;13.404;2024-02-23T14:34:21;9.80;99.90
18880;DHT22;9572;52.378;13.404;2024-02-23T14:36:49;9.70;99.90
18880;DHT22;9572;52.378;13.404;2024-02-23T14:39:16;9.80;99.90
18880;DHT22;9572;52.378;13.404;2024-02-23T14:41:43;9.80;99.90
18880;DHT22;9572;52.378;13.404;2024-02-23T14:44:11;9.70;99.90
18880;DHT22;9572;52.378;13.404;2024-02-23T14:46:38;9.70;99.90
18880;DHT22;9572;52.378;13.404;2024-02-23T14:49:06;9.70;99.90
18880;DHT22;9572;52.378;13.404;2024-02-23T14:51:33;9.60;99.90
18880;DHT22;9572;52.378;13.404;2024-02-23T14:54:02;9.60;99.90
18880;DHT22;9572;52.378;13.404;2024-02-23T14:56:29;9.70;99.90
18880;DHT22;9572;52.378;13.404;2024-02-23T14:58:56;9.70;99.90
18880;DHT22;9572;52.378;13.404;2024-02-23T15:01:24;9.60;99.90
18880;DHT22;9572;52.378;13.404;2024-02-23T15:03:51;9.60;99.90
18880;DHT22;9572;52.378;13.404;2024-02-23T15:06:18;9.50;99.90
18880;DHT22;9572;52.378;13.404;2024-02-23T15:08:46;9.60;99.90
18880;DHT22;9572;52.378;13.404;2024-02-23T15:11:13;9.50;99.90
18880;DHT22;9572;52.378;13.404;2024-02-23T15:13:40;9.60;99.90
18880;DHT22;9572;52.378;13.404;2024-02-23T15:16:07;9.60;99.90
18880;DHT22;9572;52.378;13.404;2024-02-23T15:18:35;9.60;99.90
18880;DHT22;9572;52.378;13.404;2024-02-23T15:21:02;9.50;99.90
18880;DHT22;9572;52.378;13.404;2024-02-23T15:23:29;9.50;99.90
18880;DHT22;9572;52.378;13.404;2024-02-23T15:25:56;9.40;99.90
18880;DHT22;9572;52.378;13.404;2024-02-23T15:28:23;9.40;99.90
18880;DHT22;9572;52.378;13.404;2024-02-23T15:30:50;9.40;99.90
18880;DHT22;9572;52.378;13.404;2024-02-23T15:33:17;9.30;99.90
18880;DHT22;9572;52.378;13.404;2024-02-23T15:35:46;9.30;99.90
18880;DHT22;9572;52.378;13.404;2024-02-23T15:38:12;9.20;99.90
18880;DHT22;9572;52.378;13.404;2024-02-23T15:40:39;9.20;99.90
18880;DHT22;9572;52.378;13.404;2024-02-23T15:43:06;9.20;99.90
18880;DHT22;9572;52.378;13.404;2024-02-23T15:45:33;9.30;99.90
18880;DHT22;9572;52.378;13.404;2024-02-23T15:48:00;9.20;99.90
18880;DHT22;9572;52.378;13.404;2024-02-23T15:50:27;9.20;99.90
18880;DHT22;9572;52.378;13.404;2024-02-23T15:52:55;9.10;99.90
18880;DHT22;9572;52.378;13.404;2024-02-23T15:55:22;9.10;99.90
18880;DHT22;9572;52.378;13.404;2024-02-23T15:57:49;9.00;99.90
18880;DHT22;9572;52.378;13.404;2024-02-23T16:00:16;9.00;99.90
18880;DHT22;9572;52.378;13.404;2024-02-23T16:02:44;9.00;99.90